sensor_id;sensor_type;location;lat;lon;timestamp;noise_LAeq;noise_LA_min;noise_LA_max;noise_LA01;noise_LA95
72160;Laerm;60045;51.792;10.938;2024-03-02T00:02:01;52.33;28.42;69.15;;
72160;Laerm;60045;51.792;10.938;2024-03-02T00:04:27;31.33;28.79;39.22;;
72160;Laerm;60045;51.792;10.938;2024-03-02T00:06:53;56.67;28.40;75.49;;
72160;Laerm;60045;51.792;10.938;2024-03-02T00:09:20;28.97;28.02;33.31;;
72160;Laerm;60045;51.792;10.938;2024-03-02T00:11:46;28.63;28.08;30.82;;
72160;Laerm;60045;51.792;10.938;2024-03-02T00:14:11;28.81;28.03;32.52;;
72160;Laerm;60045;51.792;10.938;2024-03-02T00:16:37;28.76;27.96;30.37;;
72160;Laerm;60045;51.792;10.938;2024-03-02T00:19:03;29.95;28.02;40.14;;
72160;Laerm;60045;51.792;10.938;2024-03-02T00:21:31;53.23;28.18;71.54;;
72160;Laerm;60045;51.792;10.938;2024-03-02T00:23:57;32.11;28.01;40.92;;
72160;Laerm;60045;51.792;10.938;2024-03-02T00:26:22;28.65;27.92;32.07;;
72160;Laerm;60045;51.792;10.938;2024-03-02T00:28:48;28.63;27.71;31.55;;
72160;Laerm;60045;51.792;10.938;2024-03-02T00:31:15;28.65;27.94;32.75;;
72160;Laerm;60045;51.792;10.938;2024-03-02T00:36:08;28.88;28.01;31.55;;
72160;Laerm;60045;51.792;10.938;2024-03-02T00:38:34;29.09;28.02;36.41;;
72160;Laerm;60045;51.792;10.938;2024-03-02T00:41:07;28.83;28.01;36.25;;
72160;Laerm;60045;51.792;10.938;2024-03-02T00:46:27;46.53;28.07;63.22;;
72160;Laerm;60045;51.792;10.938;2024-03-02T00:48:55;29.22;28.01;31.92;;
72160;Laerm;60045;51.792;10.938;2024-03-02T00:51:22;28.58;28.01;29.23;;
72160;Laerm;60045;51.792;10.938;2024-03-02T00:53:48;29.59;28.00;35.09;;
72160;Laerm;60045;51.792;10.938;2024-03-02T00:56:14;29.09;28.04;34.38;;
72160;Laerm;60045;51.792;10.938;2024-03-02T00:58:39;28.71;27.95;39.96;;
72160;Laerm;60045;51.792;10.938;2024-03-02T01:01:05;28.60;27.98;31.82;;
72160;Laerm;60045;51.792;10.938;2024-03-02T01:03:32;28.85;27.92;31.48;;
72160;Laerm;60045;51.792;10.938;2024-03-02T01:05:58;30.86;27.90;39.17;;
72160;Laerm;60045;51.792;10.938;2024-03-02T01:08:24;28.50;27.78;31.01;;
72160;Laerm;60045;51.792;10.938;2024-03-02T01:10:50;28.55;27.83;31.53;;
72160;Laerm;60045;51.792;10.938;2024-03-02T01:13:16;28.51;27.86;30.92;;
72160;Laerm;60045;51.792;10.938;2024-03-02T01:15:41;28.56;27.90;32.32;;
72160;Laerm;60045;51.792;10.938;2024-03-02T01:18:07;28.74;27.95;30.70;;
72160;Laerm;60045;51.792;10.938;2024-03-02T01:20:33;52.50;27.94;69.37;;
72160;Laerm;60045;51.792;10.938;2024-03-02T01:22:59;29.10;27.89;33.09;;
72160;Laerm;60045;51.792;10.938;2024-03-02T01:25:25;28.54;27.86;34.71;;
72160;Laerm;60045;51.792;10.938;2024-03-02T01:27:50;28.92;27.89;37.81;;
72160;Laerm;60045;51.792;10.938;2024-03-02T01:30:16;40.62;30.80;49.96;;
72160;Laerm;60045;51.792;10.938;2024-03-02T01:32:42;54.12;29.45;70.14;;
72160;Laerm;60045;51.792;10.938;2024-03-02T01:35:08;57.06;28.20;73.71;;
72160;Laerm;60045;51.792;10.938;2024-03-02T01:37:34;29.14;27.89;35.37;;
72160;Laerm;60045;51.792;10.938;2024-03-02T01:39:59;28.52;27.91;30.23;;
72160;Laerm;60045;51.792;10.938;2024-03-02T01:42:25;28.49;27.94;29.30;;
72160;Laerm;60045;51.792;10.938;2024-03-02T01:44:51;28.51;27.76;29.60;;
72160;Laerm;60045;51.792;10.938;2024-03-02T01:47:17;29.89;27.92;35.14;;
72160;Laerm;60045;51.792;10.938;2024-03-02T01:49:43;28.49;27.74;29.55;;
72160;Laerm;60045;51.792;10.938;2024-03-02T01:52:08;28.47;27.93;29.55;;
72160;Laerm;60045;51.792;10.938;2024-03-02T01:54:34;29.35;28.04;35.28;;
72160;Laerm;60045;51.792;10.938;2024-03-02T01:57:00;28.67;27.95;38.23;;
72160;Laerm;60045;51.792;10.938;2024-03-02T01:59:26;28.52;27.78;29.58;;
72160;Laerm;60045;51.792;10.938;2024-03-02T02:01:52;28.96;27.96;31.55;;
72160;Laerm;60045;51.792;10.938;2024-03-02T02:04:17;31.62;28.05;40.88;;
72160;Laerm;60045;51.792;10.938;2024-03-02T02:06:46;60.48;28.65;79.08;;
72160;Laerm;60045;51.792;10.938;2024-03-02T02:09:12;30.16;28.00;35.91;;
72160;Laerm;60045;51.792;10.938;2024-03-02T02:11:37;29.42;28.08;32.94;;
72160;Laerm;60045;51.792;10.938;2024-03-02T02:14:03;28.65;27.94;30.69;;
72160;Laerm;60045;51.792;10.938;2024-03-02T02:16:29;31.31;28.07;36.80;;
72160;Laerm;60045;51.792;10.938;2024-03-02T02:18:54;29.77;28.41;32.60;;
72160;Laerm;60045;51.792;10.938;2024-03-02T02:21:23;38.84;28.38;48.02;;
72160;Laerm;60045;51.792;10.938;2024-03-02T02:23:49;32.26;28.36;38.83;;
72160;Laerm;60045;51.792;10.938;2024-03-02T02:26:15;28.55;27.90;29.98;;
72160;Laerm;60045;51.792;10.938;2024-03-02T02:28:41;28.96;27.95;33.67;;
72160;Laerm;60045;51.792;10.938;2024-03-02T02:31:15;31.01;27.84;40.04;;
72160;Laerm;60045;51.792;10.938;2024-03-02T02:33:41;28.62;27.94;30.72;;
72160;Laerm;60045;51.792;10.938;2024-03-02T02:36:06;29.08;28.07;31.97;;
72160;Laerm;60045;51.792;10.938;2024-03-02T02:38:36;28.67;27.94;29.76;;
72160;Laerm;60045;51.792;10.938;2024-03-02T02:41:03;28.83;27.99;31.05;;
72160;Laerm;60045;51.792;10.938;2024-03-02T02:43:29;31.25;28.36;40.93;;
72160;Laerm;60045;51.792;10.938;2024-03-02T02:45:54;58.69;28.42;75.73;;
72160;Laerm;60045;51.792;10.938;2024-03-02T02:48:20;58.04;29.15;76.44;;
72160;Laerm;60045;51.792;10.938;2024-03-02T02:50:46;30.06;28.45;39.55;;
72160;Laerm;60045;51.792;10.938;2024-03-02T02:53:12;29.45;28.41;34.58;;
72160;Laerm;60045;51.792;10.938;2024-03-02T02:55:39;29.19;28.19;33.16;;
72160;Laerm;60045;51.792;10.938;2024-03-02T02:58:05;33.90;28.02;47.95;;
72160;Laerm;60045;51.792;10.938;2024-03-02T03:00:31;29.14;28.08;32.74;;
72160;Laerm;60045;51.792;10.938;2024-03-02T03:02:57;28.78;27.98;32.97;;
72160;Laerm;60045;51.792;10.938;2024-03-02T03:05:22;29.23;27.96;39.47;;
72160;Laerm;60045;51.792;10.938;2024-03-02T03:07:48;54.03;28.25;71.45;;
72160;Laerm;60045;51.792;10.938;2024-03-02T03:10:15;29.25;28.03;44.50;;
72160;Laerm;60045;51.792;10.938;2024-03-02T03:12:41;35.60;28.04;52.48;;
72160;Laerm;60045;51.792;10.938;2024-03-02T03:15:08;29.14;28.07;34.77;;
72160;Laerm;60045;51.792;10.938;2024-03-02T03:17:34;28.66;28.04;35.38;;
72160;Laerm;60045;51.792;10.938;2024-03-02T03:20:00;31.27;27.99;39.33;;
72160;Laerm;60045;51.792;10.938;2024-03-02T03:22:26;28.96;28.00;38.55;;
72160;Laerm;60045;51.792;10.938;2024-03-02T03:24:52;28.58;27.93;29.31;;
72160;Laerm;60045;51.792;10.938;2024-03-02T03:27:17;33.91;27.98;45.39;;
72160;Laerm;60045;51.792;10.938;2024-03-02T03:29:44;55.98;28.16;72.02;;
72160;Laerm;60045;51.792;10.938;2024-03-02T03:32:10;29.59;28.07;37.76;;
72160;Laerm;60045;51.792;10.938;2024-03-02T03:34:36;28.64;27.85;33.19;;
72160;Laerm;60045;51.792;10.938;2024-03-02T03:37:02;28.54;27.96;29.73;;
72160;Laerm;60045;51.792;10.938;2024-03-02T03:39:27;28.85;27.92;32.82;;
72160;Laerm;60045;51.792;10.938;2024-03-02T03:41:53;51.53;28.02;67.96;;
72160;Laerm;60045;51.792;10.938;2024-03-02T03:44:19;34.83;27.79;54.12;;
72160;Laerm;60045;51.792;10.938;2024-03-02T03:46:45;47.69;27.91;65.84;;
72160;Laerm;60045;51.792;10.938;2024-03-02T03:49:10;55.23;27.99;71.73;;
72160;Laerm;60045;51.792;10.938;2024-03-02T03:51:36;31.96;28.15;41.21;;
72160;Laerm;60045;51.792;10.938;2024-03-02T03:54:02;28.72;27.90;31.96;;
72160;Laerm;60045;51.792;10.938;2024-03-02T03:56:28;29.52;28.10;36.67;;
72160;Laerm;60045;51.792;10.938;2024-03-02T03:58:53;52.12;28.57;69.39;;
72160;Laerm;60045;51.792;10.938;2024-03-02T04:01:19;32.41;27.96;47.48;;
72160;Laerm;60045;51.792;10.938;2024-03-02T04:03:47;51.16;28.09;67.96;;
72160;Laerm;60045;51.792;10.938;2024-03-02T04:06:12;29.17;28.36;31.20;;
72160;Laerm;60045;51.792;10.938;2024-03-02T04:08:38;30.24;28.91;38.27;;
72160;Laerm;60045;51.792;10.938;2024-03-02T04:11:04;51.50;29.09;68.61;;
72160;Laerm;60045;51.792;10.938;2024-03-02T04:13:31;32.04;29.17;40.29;;
72160;Laerm;60045;51.792;10.938;2024-03-02T04:15:57;56.95;31.88;71.25;;
72160;Laerm;60045;51.792;10.938;2024-03-02T04:18:22;32.34;29.67;39.04;;
72160;Laerm;60045;51.792;10.938;2024-03-02T04:20:48;34.31;29.49;45.36;;
72160;Laerm;60045;51.792;10.938;2024-03-02T04:23:14;55.28;29.49;73.24;;
72160;Laerm;60045;51.792;10.938;2024-03-02T04:25:40;35.60;28.71;45.14;;
72160;Laerm;60045;51.792;10.938;2024-03-02T04:28:05;54.50;28.53;68.71;;
72160;Laerm;60045;51.792;10.938;2024-03-02T04:30:31;31.22;28.60;37.25;;
72160;Laerm;60045;51.792;10.938;2024-03-02T04:32:57;30.56;28.69;37.85;;
72160;Laerm;60045;51.792;10.938;2024-03-02T04:35:23;30.30;28.37;39.67;;
72160;Laerm;60045;51.792;10.938;2024-03-02T04:37:48;30.68;28.56;39.94;;
72160;Laerm;60045;51.792;10.938;2024-03-02T04:40:14;51.47;28.36;68.42;;
72160;Laerm;60045;51.792;10.938;2024-03-02T04:42:40;39.07;28.70;61.24;;
72160;Laerm;60045;51.792;10.938;2024-03-02T04:45:05;32.59;28.36;47.66;;
72160;Laerm;60045;51.792;10.938;2024-03-02T04:47:32;53.81;29.42;67.25;;
72160;Laerm;60045;51.792;10.938;2024-03-02T04:49:57;52.97;29.40;69.23;;
72160;Laerm;60045;51.792;10.938;2024-03-02T04:52:23;31.48;28.81;40.25;;
72160;Laerm;60045;51.792;10.938;2024-03-02T04:54:49;34.19;28.82;43.45;;
72160;Laerm;60045;51.792;10.938;2024-03-02T04:57:33;51.30;31.51;67.99;;
72160;Laerm;60045;51.792;10.938;2024-03-02T04:59:59;54.88;28.57;73.11;;
72160;Laerm;60045;51.792;10.938;2024-03-02T05:02:25;50.95;28.63;67.65;;
72160;Laerm;60045;51.792;10.938;2024-03-02T05:04:51;37.28;30.18;48.38;;
72160;Laerm;60045;51.792;10.938;2024-03-02T05:07:16;52.87;29.52;67.70;;
72160;Laerm;60045;51.792;10.938;2024-03-02T05:09:42;50.28;29.37;66.69;;
72160;Laerm;60045;51.792;10.938;2024-03-02T05:12:08;34.88;28.75;44.13;;
72160;Laerm;60045;51.792;10.938;2024-03-02T05:14:57;58.35;32.56;72.12;;
72160;Laerm;60045;51.792;10.938;2024-03-02T05:17:22;56.29;33.46;73.10;;
72160;Laerm;60045;51.792;10.938;2024-03-02T05:19:48;40.37;31.18;49.94;;
72160;Laerm;60045;51.792;10.938;2024-03-02T05:22:14;42.51;32.06;52.62;;
72160;Laerm;60045;51.792;10.938;2024-03-02T05:24:39;42.63;32.25;52.76;;
72160;Laerm;60045;51.792;10.938;2024-03-02T05:27:05;43.09;33.90;54.11;;
72160;Laerm;60045;51.792;10.938;2024-03-02T05:29:32;57.86;34.96;71.67;;
72160;Laerm;60045;51.792;10.938;2024-03-02T05:31:58;43.76;33.08;52.31;;
72160;Laerm;60045;51.792;10.938;2024-03-02T05:34:23;44.35;33.91;58.44;;
72160;Laerm;60045;51.792;10.938;2024-03-02T05:36:49;48.68;32.80;62.82;;
72160;Laerm;60045;51.792;10.938;2024-03-02T05:39:15;58.00;35.31;71.06;;
72160;Laerm;60045;51.792;10.938;2024-03-02T05:41:41;42.42;32.11;52.85;;
72160;Laerm;60045;51.792;10.938;2024-03-02T05:44:06;40.44;31.66;48.79;;
72160;Laerm;60045;51.792;10.938;2024-03-02T05:46:32;56.00;33.88;70.18;;
72160;Laerm;60045;51.792;10.938;2024-03-02T05:48:59;51.33;33.04;68.90;;
72160;Laerm;60045;51.792;10.938;2024-03-02T05:51:24;55.00;31.49;73.21;;
72160;Laerm;60045;51.792;10.938;2024-03-02T05:53:50;41.36;31.51;52.46;;
72160;Laerm;60045;51.792;10.938;2024-03-02T05:56:16;55.32;34.65;70.72;;
72160;Laerm;60045;51.792;10.938;2024-03-02T05:58:42;57.33;35.64;70.31;;
72160;Laerm;60045;51.792;10.938;2024-03-02T06:01:33;49.85;33.46;66.43;;
72160;Laerm;60045;51.792;10.938;2024-03-02T06:03:58;40.85;31.79;49.83;;
72160;Laerm;60045;51.792;10.938;2024-03-02T06:06:24;55.53;33.61;69.24;;
72160;Laerm;60045;51.792;10.938;2024-03-02T06:08:50;39.71;31.66;53.37;;
72160;Laerm;60045;51.792;10.938;2024-03-02T06:11:16;55.91;31.42;70.86;;
72160;Laerm;60045;51.792;10.938;2024-03-02T06:13:41;55.16;34.92;69.35;;
72160;Laerm;60045;51.792;10.938;2024-03-02T06:16:07;57.73;35.07;72.88;;
72160;Laerm;60045;51.792;10.938;2024-03-02T06:18:33;50.64;32.41;66.18;;
72160;Laerm;60045;51.792;10.938;2024-03-02T06:20:59;50.02;33.17;66.17;;
72160;Laerm;60045;51.792;10.938;2024-03-02T06:23:26;41.21;32.77;60.03;;
72160;Laerm;60045;51.792;10.938;2024-03-02T06:25:51;62.60;33.59;79.62;;
72160;Laerm;60045;51.792;10.938;2024-03-02T06:28:17;54.26;33.18;71.58;;
72160;Laerm;60045;51.792;10.938;2024-03-02T06:30:43;55.79;35.46;72.54;;
72160;Laerm;60045;51.792;10.938;2024-03-02T06:33:09;61.19;33.93;74.91;;
72160;Laerm;60045;51.792;10.938;2024-03-02T06:35:35;40.64;32.68;47.88;;
72160;Laerm;60045;51.792;10.938;2024-03-02T06:38:01;54.36;35.83;71.01;;
72160;Laerm;60045;51.792;10.938;2024-03-02T06:40:26;58.34;33.72;73.78;;
72160;Laerm;60045;51.792;10.938;2024-03-02T06:42:52;39.36;31.36;48.95;;
72160;Laerm;60045;51.792;10.938;2024-03-02T06:45:18;49.29;31.71;64.53;;
72160;Laerm;60045;51.792;10.938;2024-03-02T06:47:44;56.29;34.51;72.67;;
72160;Laerm;60045;51.792;10.938;2024-03-02T06:50:10;53.90;32.96;70.41;;
72160;Laerm;60045;51.792;10.938;2024-03-02T06:52:36;40.36;32.07;52.80;;
72160;Laerm;60045;51.792;10.938;2024-03-02T06:55:02;54.40;32.16;70.64;;
72160;Laerm;60045;51.792;10.938;2024-03-02T06:57:29;52.76;32.06;70.81;;
72160;Laerm;60045;51.792;10.938;2024-03-02T06:59:55;56.27;34.12;69.26;;
72160;Laerm;60045;51.792;10.938;2024-03-02T07:02:23;44.89;33.92;61.12;;
72160;Laerm;60045;51.792;10.938;2024-03-02T07:04:50;70.29;38.76;91.63;;
72160;Laerm;60045;51.792;10.938;2024-03-02T07:07:16;57.62;36.90;70.91;;
72160;Laerm;60045;51.792;10.938;2024-03-02T07:09:42;45.38;34.25;56.91;;
72160;Laerm;60045;51.792;10.938;2024-03-02T07:12:08;58.01;32.69;75.55;;
72160;Laerm;60045;51.792;10.938;2024-03-02T07:14:34;39.21;33.31;50.04;;
72160;Laerm;60045;51.792;10.938;2024-03-02T07:17:18;65.14;33.78;81.71;;
72160;Laerm;60045;51.792;10.938;2024-03-02T07:19:44;56.09;38.25;72.51;;
72160;Laerm;60045;51.792;10.938;2024-03-02T07:22:10;56.14;35.34;69.92;;
72160;Laerm;60045;51.792;10.938;2024-03-02T07:24:40;59.83;38.53;74.20;;
72160;Laerm;60045;51.792;10.938;2024-03-02T07:27:06;58.60;36.19;72.47;;
72160;Laerm;60045;51.792;10.938;2024-03-02T07:29:32;58.10;36.14;71.23;;
72160;Laerm;60045;51.792;10.938;2024-03-02T07:31:57;56.35;34.63;71.23;;
72160;Laerm;60045;51.792;10.938;2024-03-02T07:34:23;59.49;34.92;74.20;;
72160;Laerm;60045;51.792;10.938;2024-03-02T07:36:49;58.75;32.96;71.28;;
72160;Laerm;60045;51.792;10.938;2024-03-02T07:39:15;62.71;34.31;77.90;;
72160;Laerm;60045;51.792;10.938;2024-03-02T07:41:41;57.16;34.06;72.81;;
72160;Laerm;60045;51.792;10.938;2024-03-02T07:44:07;58.65;33.30;71.13;;
72160;Laerm;60045;51.792;10.938;2024-03-02T07:46:32;52.45;32.44;68.50;;
72160;Laerm;60045;51.792;10.938;2024-03-02T07:48:58;59.47;34.37;72.42;;
72160;Laerm;60045;51.792;10.938;2024-03-02T07:51:24;48.98;33.40;62.84;;
72160;Laerm;60045;51.792;10.938;2024-03-02T07:53:50;59.19;35.20;70.60;;
72160;Laerm;60045;51.792;10.938;2024-03-02T07:56:15;59.57;36.65;73.11;;
72160;Laerm;60045;51.792;10.938;2024-03-02T07:58:47;59.33;37.41;72.06;;
72160;Laerm;60045;51.792;10.938;2024-03-02T08:01:14;57.32;34.60;73.46;;
72160;Laerm;60045;51.792;10.938;2024-03-02T08:03:39;56.61;33.58;72.23;;
72160;Laerm;60045;51.792;10.938;2024-03-02T08:06:05;44.54;31.57;58.65;;
72160;Laerm;60045;51.792;10.938;2024-03-02T08:08:31;58.49;33.33;70.47;;
72160;Laerm;60045;51.792;10.938;2024-03-02T08:10:57;59.72;34.38;72.93;;
72160;Laerm;60045;51.792;10.938;2024-03-02T08:13:22;60.89;37.24;73.75;;
72160;Laerm;60045;51.792;10.938;2024-03-02T08:15:48;60.73;36.16;77.58;;
72160;Laerm;60045;51.792;10.938;2024-03-02T08:18:14;61.21;35.60;73.02;;
72160;Laerm;60045;51.792;10.938;2024-03-02T08:20:40;59.65;33.68;73.18;;
72160;Laerm;60045;51.792;10.938;2024-03-02T08:23:06;52.95;32.89;68.23;;
72160;Laerm;60045;51.792;10.938;2024-03-02T08:25:33;59.14;35.01;71.78;;
72160;Laerm;60045;51.792;10.938;2024-03-02T08:27:58;60.20;34.82;72.40;;
72160;Laerm;60045;51.792;10.938;2024-03-02T08:30:24;59.24;36.16;71.13;;
72160;Laerm;60045;51.792;10.938;2024-03-02T08:32:50;56.66;34.24;71.52;;
72160;Laerm;60045;51.792;10.938;2024-03-02T08:35:16;59.63;34.96;70.28;;
72160;Laerm;60045;51.792;10.938;2024-03-02T08:37:42;60.24;32.49;73.14;;
72160;Laerm;60045;51.792;10.938;2024-03-02T08:40:08;61.14;37.04;72.62;;
72160;Laerm;60045;51.792;10.938;2024-03-02T08:42:35;53.60;35.32;74.00;;
72160;Laerm;60045;51.792;10.938;2024-03-02T08:45:01;57.42;34.19;71.56;;
72160;Laerm;60045;51.792;10.938;2024-03-02T08:47:27;58.33;35.62;70.24;;
72160;Laerm;60045;51.792;10.938;2024-03-02T08:49:53;54.88;35.49;70.50;;
72160;Laerm;60045;51.792;10.938;2024-03-02T08:52:18;63.02;39.28;73.16;;
72160;Laerm;60045;51.792;10.938;2024-03-02T08:54:44;60.23;39.59;71.09;;
72160;Laerm;60045;51.792;10.938;2024-03-02T08:57:10;62.93;39.16;74.43;;
72160;Laerm;60045;51.792;10.938;2024-03-02T08:59:36;64.65;44.61;82.83;;
72160;Laerm;60045;51.792;10.938;2024-03-02T09:02:01;62.20;38.44;75.20;;
72160;Laerm;60045;51.792;10.938;2024-03-02T09:04:27;61.92;39.77;72.15;;
72160;Laerm;60045;51.792;10.938;2024-03-02T09:06:53;58.42;37.14;70.22;;
72160;Laerm;60045;51.792;10.938;2024-03-02T09:09:19;59.01;37.04;70.44;;
72160;Laerm;60045;51.792;10.938;2024-03-02T09:11:48;62.91;41.14;74.75;;
72160;Laerm;60045;51.792;10.938;2024-03-02T09:14:13;58.97;36.38;71.65;;
72160;Laerm;60045;51.792;10.938;2024-03-02T09:16:40;60.28;37.24;72.65;;
72160;Laerm;60045;51.792;10.938;2024-03-02T09:19:05;58.49;35.52;71.21;;
72160;Laerm;60045;51.792;10.938;2024-03-02T09:21:31;62.98;39.62;75.61;;
72160;Laerm;60045;51.792;10.938;2024-03-02T09:23:57;57.46;34.37;72.89;;
72160;Laerm;60045;51.792;10.938;2024-03-02T09:26:22;58.33;36.02;71.56;;
72160;Laerm;60045;51.792;10.938;2024-03-02T09:28:49;57.91;35.77;70.21;;
72160;Laerm;60045;51.792;10.938;2024-03-02T09:31:15;62.99;35.93;78.69;;
72160;Laerm;60045;51.792;10.938;2024-03-02T09:33:41;61.40;33.51;75.32;;
72160;Laerm;60045;51.792;10.938;2024-03-02T09:36:16;62.97;40.24;74.73;;
72160;Laerm;60045;51.792;10.938;2024-03-02T09:38:43;61.01;35.80;72.51;;
72160;Laerm;60045;51.792;10.938;2024-03-02T09:41:09;63.62;37.80;73.66;;
72160;Laerm;60045;51.792;10.938;2024-03-02T09:43:35;61.20;34.87;73.36;;
72160;Laerm;60045;51.792;10.938;2024-03-02T09:46:01;58.45;33.33;71.86;;
72160;Laerm;60045;51.792;10.938;2024-03-02T09:48:27;60.18;35.73;71.30;;
72160;Laerm;60045;51.792;10.938;2024-03-02T09:50:53;58.59;34.61;70.50;;
72160;Laerm;60045;51.792;10.938;2024-03-02T09:53:18;56.07;34.49;69.53;;
72160;Laerm;60045;51.792;10.938;2024-03-02T09:55:48;58.27;33.57;71.59;;
72160;Laerm;60045;51.792;10.938;2024-03-02T09:58:13;61.40;37.09;73.35;;
72160;Laerm;60045;51.792;10.938;2024-03-02T10:00:39;60.67;34.57;72.18;;
72160;Laerm;60045;51.792;10.938;2024-03-02T10:03:05;58.25;33.24;71.60;;
72160;Laerm;60045;51.792;10.938;2024-03-02T10:05:30;64.63;36.50;82.10;;
72160;Laerm;60045;51.792;10.938;2024-03-02T10:08:02;59.54;33.61;77.73;;
72160;Laerm;60045;51.792;10.938;2024-03-02T10:10:38;56.10;33.53;71.73;;
72160;Laerm;60045;51.792;10.938;2024-03-02T10:13:08;62.25;37.22;76.18;;
72160;Laerm;60045;51.792;10.938;2024-03-02T10:15:34;60.13;35.29;73.89;;
72160;Laerm;60045;51.792;10.938;2024-03-02T10:18:02;59.32;32.76;73.99;;
72160;Laerm;60045;51.792;10.938;2024-03-02T10:20:27;59.81;32.88;74.92;;
72160;Laerm;60045;51.792;10.938;2024-03-02T10:22:54;60.96;38.16;72.98;;
72160;Laerm;60045;51.792;10.938;2024-03-02T10:25:32;58.12;33.37;69.61;;
72160;Laerm;60045;51.792;10.938;2024-03-02T10:27:58;61.39;34.21;72.47;;
72160;Laerm;60045;51.792;10.938;2024-03-02T10:30:25;61.95;36.85;73.44;;
72160;Laerm;60045;51.792;10.938;2024-03-02T10:32:51;61.52;37.10;74.70;;
72160;Laerm;60045;51.792;10.938;2024-03-02T10:35:18;68.60;36.98;86.90;;
72160;Laerm;60045;51.792;10.938;2024-03-02T10:37:44;63.21;41.31;73.52;;
72160;Laerm;60045;51.792;10.938;2024-03-02T10:40:10;62.24;40.64;71.66;;
72160;Laerm;60045;51.792;10.938;2024-03-02T10:42:37;62.63;38.44;71.64;;
72160;Laerm;60045;51.792;10.938;2024-03-02T10:45:06;60.28;37.16;71.86;;
72160;Laerm;60045;51.792;10.938;2024-03-02T10:47:33;60.79;36.14;72.53;;
72160;Laerm;60045;51.792;10.938;2024-03-02T10:50:01;59.84;34.59;72.33;;
72160;Laerm;60045;51.792;10.938;2024-03-02T10:52:31;58.00;33.42;73.84;;
72160;Laerm;60045;51.792;10.938;2024-03-02T10:54:57;57.36;31.52;72.41;;
72160;Laerm;60045;51.792;10.938;2024-03-02T10:57:22;61.92;35.77;72.60;;
72160;Laerm;60045;51.792;10.938;2024-03-02T10:59:53;60.79;34.83;73.18;;
72160;Laerm;60045;51.792;10.938;2024-03-02T11:02:21;60.59;36.05;72.36;;
72160;Laerm;60045;51.792;10.938;2024-03-02T11:04:49;62.44;37.82;71.60;;
72160;Laerm;60045;51.792;10.938;2024-03-02T11:07:16;60.54;35.50;73.90;;
72160;Laerm;60045;51.792;10.938;2024-03-02T11:09:45;61.92;33.65;78.29;;
72160;Laerm;60045;51.792;10.938;2024-03-02T11:12:23;57.50;32.98;71.20;;
72160;Laerm;60045;51.792;10.938;2024-03-02T11:14:50;61.49;35.93;73.49;;
72160;Laerm;60045;51.792;10.938;2024-03-02T11:17:19;63.68;37.41;78.66;;
72160;Laerm;60045;51.792;10.938;2024-03-02T11:19:45;61.73;40.46;75.19;;
72160;Laerm;60045;51.792;10.938;2024-03-02T11:22:11;54.71;32.18;70.54;;
72160;Laerm;60045;51.792;10.938;2024-03-02T11:24:37;59.62;35.03;72.21;;
72160;Laerm;60045;51.792;10.938;2024-03-02T11:27:04;60.49;33.43;72.88;;
72160;Laerm;60045;51.792;10.938;2024-03-02T11:32:02;59.64;33.61;72.82;;
72160;Laerm;60045;51.792;10.938;2024-03-02T11:34:34;59.03;33.60;72.08;;
72160;Laerm;60045;51.792;10.938;2024-03-02T11:37:03;62.86;31.40;82.92;;
72160;Laerm;60045;51.792;10.938;2024-03-02T11:39:29;60.26;35.05;73.28;;
72160;Laerm;60045;51.792;10.938;2024-03-02T11:41:55;58.61;34.58;70.89;;
72160;Laerm;60045;51.792;10.938;2024-03-02T11:44:22;47.70;31.95;62.44;;
72160;Laerm;60045;51.792;10.938;2024-03-02T11:47:05;59.51;35.18;70.70;;
72160;Laerm;60045;51.792;10.938;2024-03-02T11:52:06;60.66;34.98;72.73;;
72160;Laerm;60045;51.792;10.938;2024-03-02T11:54:33;62.54;39.09;75.20;;
72160;Laerm;60045;51.792;10.938;2024-03-02T11:57:04;58.06;30.74;72.97;;
72160;Laerm;60045;51.792;10.938;2024-03-02T11:59:30;63.78;34.09;76.60;;
72160;Laerm;60045;51.792;10.938;2024-03-02T12:01:56;60.79;33.30;74.17;;
72160;Laerm;60045;51.792;10.938;2024-03-02T12:04:22;60.58;32.26;77.11;;
72160;Laerm;60045;51.792;10.938;2024-03-02T12:06:54;60.15;35.41;70.51;;
72160;Laerm;60045;51.792;10.938;2024-03-02T12:09:20;60.46;33.88;76.20;;
72160;Laerm;60045;51.792;10.938;2024-03-02T12:11:46;62.89;36.37;74.90;;
72160;Laerm;60045;51.792;10.938;2024-03-02T12:14:12;59.36;34.02;71.63;;
72160;Laerm;60045;51.792;10.938;2024-03-02T12:16:38;60.36;34.32;71.91;;
72160;Laerm;60045;51.792;10.938;2024-03-02T12:19:05;62.29;38.32;78.11;;
72160;Laerm;60045;51.792;10.938;2024-03-02T12:21:31;63.48;38.95;76.61;;
72160;Laerm;60045;51.792;10.938;2024-03-02T12:23:56;61.96;37.77;74.56;;
72160;Laerm;60045;51.792;10.938;2024-03-02T12:26:22;63.58;37.52;78.32;;
72160;Laerm;60045;51.792;10.938;2024-03-02T12:28:48;61.62;35.26;74.25;;
72160;Laerm;60045;51.792;10.938;2024-03-02T12:31:14;59.89;29.55;72.10;;
72160;Laerm;60045;51.792;10.938;2024-03-02T12:33:40;60.31;35.97;71.04;;
72160;Laerm;60045;51.792;10.938;2024-03-02T12:36:10;56.20;33.65;68.37;;
72160;Laerm;60045;51.792;10.938;2024-03-02T12:38:37;55.37;32.36;72.52;;
72160;Laerm;60045;51.792;10.938;2024-03-02T12:41:03;62.81;35.23;78.61;;
72160;Laerm;60045;51.792;10.938;2024-03-02T12:43:30;61.62;34.80;73.51;;
72160;Laerm;60045;51.792;10.938;2024-03-02T12:45:59;61.62;34.83;73.38;;
72160;Laerm;60045;51.792;10.938;2024-03-02T12:48:25;60.96;31.29;73.55;;
72160;Laerm;60045;51.792;10.938;2024-03-02T12:50:51;62.16;31.69;72.72;;
72160;Laerm;60045;51.792;10.938;2024-03-02T12:53:17;62.54;37.74;74.31;;
72160;Laerm;60045;51.792;10.938;2024-03-02T12:55:42;61.56;32.99;72.58;;
72160;Laerm;60045;51.792;10.938;2024-03-02T12:58:21;61.72;35.35;71.73;;
72160;Laerm;60045;51.792;10.938;2024-03-02T13:00:47;60.50;35.29;71.62;;
72160;Laerm;60045;51.792;10.938;2024-03-02T13:03:13;58.72;34.82;70.97;;
72160;Laerm;60045;51.792;10.938;2024-03-02T13:05:39;62.24;35.57;74.34;;
72160;Laerm;60045;51.792;10.938;2024-03-02T13:08:06;61.08;38.80;71.41;;
72160;Laerm;60045;51.792;10.938;2024-03-02T13:10:32;61.12;35.38;75.41;;
72160;Laerm;60045;51.792;10.938;2024-03-02T13:12:58;62.05;39.86;70.86;;
72160;Laerm;60045;51.792;10.938;2024-03-02T13:15:27;60.15;38.52;72.82;;
72160;Laerm;60045;51.792;10.938;2024-03-02T13:17:53;65.01;37.01;82.99;;
72160;Laerm;60045;51.792;10.938;2024-03-02T13:20:18;59.66;32.65;69.77;;
72160;Laerm;60045;51.792;10.938;2024-03-02T13:22:45;63.01;33.27;77.69;;
72160;Laerm;60045;51.792;10.938;2024-03-02T13:25:10;61.49;38.60;72.36;;
72160;Laerm;60045;51.792;10.938;2024-03-02T13:27:36;62.15;38.68;72.32;;
72160;Laerm;60045;51.792;10.938;2024-03-02T13:30:02;61.60;43.50;73.05;;
72160;Laerm;60045;51.792;10.938;2024-03-02T13:32:30;60.58;34.45;74.02;;
72160;Laerm;60045;51.792;10.938;2024-03-02T13:34:56;60.83;36.07;72.92;;
72160;Laerm;60045;51.792;10.938;2024-03-02T13:37:22;65.14;41.38;78.01;;
72160;Laerm;60045;51.792;10.938;2024-03-02T13:39:48;60.99;39.45;70.39;;